Time;durP1;ratioP1;P1;durP2;ratioP2;P2;SDS_P1;SDS_P2;PMS_P1;PMS_P2;Temp;Humidity;BMP_temperature;BMP_pressure;BME280_temperature;BME280_humidity;BME280_pressure;Samples;Min_cycle;Max_cycle;Signal;HPM_P1;HPM_P2
2021/10/25 00:00:09;;;;;;;25.47;23.17;;;5.10;99.90;;;;;;5098116;28;20466;-69
2021/10/25 00:02:36;;;;;;;24.93;22.77;;;5.10;99.90;;;;;;5098574;28;20535;-69
2021/10/25 00:05:03;;;;;;;26.00;23.47;;;5.20;99.90;;;;;;5099362;28;20467;-68
2021/10/25 00:07:31;;;;;;;26.90;24.40;;;5.20;99.90;;;;;;5095891;28;20473;-69
2021/10/25 00:09:58;;;;;;;25.03;22.93;;;5.20;99.90;;;;;;5105507;28;20484;-69
2021/10/25 00:12:26;;;;;;;26.20;23.70;;;5.20;99.90;;;;;;5098304;28;20461;-69
2021/10/25 00:14:54;;;;;;;24.30;22.03;;;5.30;99.90;;;;;;5104898;28;20461;-69
2021/10/25 00:17:21;;;;;;;26.60;24.00;;;5.40;99.90;;;;;;5092084;28;21147;-69
2021/10/25 00:19:49;;;;;;;25.93;23.00;;;5.30;99.90;;;;;;5098708;28;20536;-69
2021/10/25 00:22:15;;;;;;;25.57;23.33;;;5.20;99.90;;;;;;5094651;28;20458;-69
2021/10/25 00:24:44;;;;;;;25.80;23.10;;;5.20;99.90;;;;;;5095440;28;20849;-69
2021/10/25 00:27:11;;;;;;;25.03;22.50;;;5.30;99.90;;;;;;5096066;28;21385;-69
2021/10/25 00:29:39;;;;;;;25.80;23.40;;;5.30;99.90;;;;;;5098160;28;20462;-69
2021/10/25 00:32:06;;;;;;;24.27;22.20;;;5.40;99.90;;;;;;5095892;28;20493;-69
2021/10/25 00:34:33;;;;;;;27.33;22.77;;;5.40;99.90;;;;;;5096231;28;20466;-69
2021/10/25 00:37:02;;;;;;;25.33;22.80;;;5.30;99.90;;;;;;5103983;28;20528;-69
2021/10/25 00:39:31;;;;;;;25.20;22.90;;;5.30;99.90;;;;;;5103083;28;20462;-69
2021/10/25 00:42:00;;;;;;;24.27;22.27;;;5.40;99.90;;;;;;5100474;28;20463;-69
2021/10/25 00:44:28;;;;;;;24.47;22.57;;;5.40;99.90;;;;;;5094151;28;20975;-68
2021/10/25 00:46:55;;;;;;;24.43;22.63;;;5.40;99.90;;;;;;5096628;28;20454;-69
2021/10/25 00:49:22;;;;;;;25.23;23.13;;;5.40;99.90;;;;;;5102123;28;20976;-69
2021/10/25 00:51:50;;;;;;;26.13;23.93;;;5.30;99.90;;;;;;5095500;28;20554;-69
2021/10/25 00:54:18;;;;;;;24.43;22.63;;;5.30;99.90;;;;;;5104343;28;20528;-69
2021/10/25 00:56:47;;;;;;;24.50;22.40;;;5.30;99.90;;;;;;5096943;28;20930;-69
2021/10/25 00:59:16;;;;;;;27.00;24.27;;;5.30;99.90;;;;;;5099342;28;20460;-69
2021/10/25 01:01:43;;;;;;;26.40;23.70;;;5.30;99.90;;;;;;5094010;28;20548;-68
2021/10/25 01:04:11;;;;;;;28.43;23.07;;;5.30;99.90;;;;;;5104971;28;20554;-68
2021/10/25 01:06:38;;;;;;;25.57;23.30;;;5.30;99.90;;;;;;5099034;28;20911;-68
2021/10/25 01:09:07;;;;;;;26.20;23.60;;;5.30;99.90;;;;;;5101264;28;20461;-69
2021/10/25 01:11:36;;;;;;;25.40;23.43;;;5.30;99.90;;;;;;5099432;28;20978;-69
2021/10/25 01:14:03;;;;;;;26.90;24.40;;;5.40;99.90;;;;;;5105706;28;20457;-69
2021/10/25 01:16:31;;;;;;;25.97;23.60;;;5.40;99.90;;;;;;5087778;28;21467;-69
2021/10/25 01:18:58;;;;;;;24.80;22.90;;;5.50;99.90;;;;;;5099097;28;20462;-70
2021/10/25 01:21:26;;;;;;;25.80;23.80;;;5.50;99.90;;;;;;5098030;28;20962;-69
2021/10/25 01:23:54;;;;;;;26.13;24.00;;;5.50;99.90;;;;;;5095061;28;20540;-69
2021/10/25 01:26:23;;;;;;;27.30;25.00;;;5.50;99.90;;;;;;5095916;28;21153;-69
2021/10/25 01:28:52;;;;;;;26.53;24.50;;;5.40;99.90;;;;;;5100221;28;20455;-69
2021/10/25 01:31:21;;;;;;;25.70;23.67;;;5.50;99.90;;;;;;5090946;28;20519;-69
2021/10/25 01:33:49;;;;;;;26.63;24.30;;;5.40;99.90;;;;;;5097137;28;20473;-69
2021/10/25 01:36:16;;;;;;;25.73;23.77;;;5.40;99.90;;;;;;5093863;28;20467;-69
2021/10/25 01:38:45;;;;;;;27.37;25.17;;;5.40;99.90;;;;;;5089730;28;20555;-69
2021/10/25 01:41:12;;;;;;;27.07;24.63;;;5.30;99.90;;;;;;5093826;28;20453;-69
2021/10/25 01:43:39;;;;;;;26.87;24.60;;;5.40;99.90;;;;;;5088278;28;20489;-70
2021/10/25 01:46:07;;;;;;;27.63;25.00;;;5.30;99.90;;;;;;5093076;28;20461;-69
2021/10/25 01:48:34;;;;;;;26.33;24.30;;;5.30;99.90;;;;;;5092460;28;20580;-69
2021/10/25 01:51:01;;;;;;;25.60;23.50;;;5.30;99.90;;;;;;5094620;28;20461;-69
2021/10/25 01:53:29;;;;;;;27.03;24.73;;;5.30;99.90;;;;;;5101618;28;20455;-69
2021/10/25 01:56:00;;;;;;;25.23;23.33;;;5.40;99.90;;;;;;5089693;28;20892;-69
2021/10/25 01:58:28;;;;;;;27.13;24.73;;;5.40;99.90;;;;;;5103059;28;20497;-69
2021/10/25 02:00:55;;;;;;;25.47;23.50;;;5.40;99.90;;;;;;5095237;28;20496;-69
2021/10/25 02:03:22;;;;;;;26.63;23.83;;;5.50;99.90;;;;;;5092781;28;20461;-69
2021/10/25 02:05:49;;;;;;;26.90;24.50;;;5.50;99.90;;;;;;5102160;28;20462;-69
2021/10/25 02:08:17;;;;;;;27.10;24.90;;;5.40;99.90;;;;;;5099271;28;20548;-69
2021/10/25 02:10:44;;;;;;;26.97;24.67;;;5.40;99.90;;;;;;5100358;28;20461;-69
2021/10/25 02:13:16;;;;;;;27.20;24.93;;;5.40;99.90;;;;;;5101159;28;20570;-69
2021/10/25 02:15:44;;;;;;;32.33;24.87;;;5.30;99.90;;;;;;5087329;28;20986;-69
2021/10/25 02:18:12;;;;;;;27.63;25.07;;;5.40;99.90;;;;;;5093510;28;20485;-69
2021/10/25 02:20:39;;;;;;;26.73;24.70;;;5.40;99.90;;;;;;5099819;28;20833;-69
2021/10/25 02:23:07;;;;;;;26.10;24.10;;;5.40;99.90;;;;;;5092308;28;20509;-69
2021/10/25 02:25:34;;;;;;;27.90;25.03;;;5.50;99.90;;;;;;5094303;28;20459;-69
2021/10/25 02:28:02;;;;;;;28.30;26.10;;;5.50;99.90;;;;;;5100747;28;20453;-69
2021/10/25 02:30:31;;;;;;;26.33;24.30;;;5.50;99.90;;;;;;5097433;28;20871;-69
2021/10/25 02:32:58;;;;;;;28.70;25.07;;;5.40;99.90;;;;;;5095967;28;20469;-69
2021/10/25 02:35:25;;;;;;;27.43;25.13;;;5.40;99.90;;;;;;5092168;28;20458;-69
2021/10/25 02:37:56;;;;;;;26.97;24.73;;;5.30;99.90;;;;;;5098221;28;20485;-69
2021/10/25 02:40:25;;;;;;;28.30;25.37;;;5.20;99.90;;;;;;5099995;28;20537;-69
2021/10/25 02:42:52;;;;;;;27.00;25.00;;;5.20;99.90;;;;;;5098065;28;20466;-69
2021/10/25 02:45:19;;;;;;;26.83;24.43;;;5.10;99.90;;;;;;5099813;28;21368;-69
2021/10/25 02:47:47;;;;;;;31.43;24.90;;;5.00;99.90;;;;;;5095269;28;21610;-69
2021/10/25 02:50:16;;;;;;;27.20;24.67;;;5.10;99.90;;;;;;5100616;28;20958;-69
2021/10/25 02:52:44;;;;;;;27.03;24.40;;;5.10;99.90;;;;;;5098639;28;20460;-69
2021/10/25 02:55:12;;;;;;;26.07;24.10;;;5.20;99.90;;;;;;5100311;28;20468;-69
2021/10/25 02:57:40;;;;;;;27.87;25.00;;;5.20;99.90;;;;;;5092603;28;20530;-69
2021/10/25 03:00:11;;;;;;;28.53;25.97;;;5.20;99.90;;;;;;5097556;28;20463;-69
2021/10/25 03:02:38;;;;;;;26.70;24.70;;;5.20;99.90;;;;;;5090126;28;20487;-69
2021/10/25 03:05:07;;;;;;;26.47;24.37;;;5.20;99.90;;;;;;5091137;28;20464;-70
2021/10/25 03:07:34;;;;;;;26.00;23.90;;;5.20;99.90;;;;;;5094745;28;20477;-69
2021/10/25 03:10:01;;;;;;;25.93;24.13;;;5.10;99.90;;;;;;5098721;28;20483;-69
2021/10/25 03:12:28;;;;;;;31.30;25.10;;;5.10;99.90;;;;;;5092498;28;20469;-69
2021/10/25 03:14:55;;;;;;;26.93;24.83;;;5.10;99.90;;;;;;5096427;28;20459;-69
2021/10/25 03:17:22;;;;;;;27.27;25.10;;;5.00;99.90;;;;;;5090360;28;20503;-69
2021/10/25 03:19:49;;;;;;;27.30;24.90;;;5.10;99.90;;;;;;5096137;28;21390;-69
2021/10/25 03:22:17;;;;;;;25.43;23.43;;;5.20;99.90;;;;;;5096251;28;20827;-69
2021/10/25 03:24:46;;;;;;;25.63;23.33;;;5.30;99.90;;;;;;5096551;28;20485;-69
2021/10/25 03:27:13;;;;;;;25.43;23.30;;;5.40;99.90;;;;;;5100218;28;20524;-67
2021/10/25 03:29:40;;;;;;;26.60;24.07;;;5.30;99.90;;;;;;5096620;28;20455;-68
2021/10/25 03:32:08;;;;;;;25.67;23.57;;;5.30;99.90;;;;;;5089375;28;20549;-68
2021/10/25 03:34:34;;;;;;;26.03;23.50;;;5.40;99.90;;;;;;5094705;28;20473;-68
2021/10/25 03:37:02;;;;;;;25.80;23.30;;;5.40;99.90;;;;;;5097763;28;20454;-68
2021/10/25 03:39:33;;;;;;;25.43;23.27;;;5.40;99.90;;;;;;5094733;28;20480;-68
2021/10/25 03:42:02;;;;;;;26.13;24.07;;;5.30;99.90;;;;;;5096019;28;20542;-68
2021/10/25 03:44:33;;;;;;;25.70;23.40;;;5.30;99.90;;;;;;5094975;28;20456;-68
2021/10/25 03:47:04;;;;;;;26.17;24.13;;;5.30;99.90;;;;;;5087205;28;20469;-68
2021/10/25 03:49:35;;;;;;;26.00;23.50;;;5.20;99.90;;;;;;5090631;28;20501;-68
2021/10/25 03:52:08;;;;;;;25.40;23.50;;;5.20;99.90;;;;;;5093937;28;20463;-68
2021/10/25 03:54:43;;;;;;;26.00;23.40;;;5.20;99.90;;;;;;5095269;28;20461;-68
2021/10/25 04:00:14;;;;;;;27.00;23.00;;;5.10;99.90;;;;;;5096810;28;21049;-68
2021/10/25 04:02:56;;;;;;;24.33;22.47;;;5.10;99.90;;;;;;5087431;28;21019;-68
2021/10/25 04:27:47;;;;;;;25.87;23.63;;;5.00;99.90;;;;;;4995372;28;20558;-68
2021/10/25 04:30:15;;;;;;;27.07;24.80;;;5.10;99.90;;;;;;5057198;28;20456;-68
2021/10/25 04:32:42;;;;;;;24.20;22.20;;;5.00;99.90;;;;;;5093738;28;20491;-68
2021/10/25 04:35:09;;;;;;;24.13;22.03;;;5.00;99.90;;;;;;5089953;28;20462;-68
2021/10/25 04:37:37;;;;;;;29.00;24.00;;;5.10;99.90;;;;;;5102080;28;21157;-68
2021/10/25 04:40:05;;;;;;;26.23;23.63;;;5.00;99.90;;;;;;5103569;28;20467;-68
2021/10/25 04:42:32;;;;;;;25.87;23.30;;;5.00;99.90;;;;;;5087780;28;20490;-68
2021/10/25 04:45:01;;;;;;;25.60;23.30;;;5.00;99.90;;;;;;5094723;28;20497;-68
2021/10/25 04:47:28;;;;;;;25.30;23.30;;;5.00;99.90;;;;;;5093049;28;20473;-68
2021/10/25 04:49:56;;;;;;;25.53;23.00;;;4.90;99.90;;;;;;5102856;28;20463;-68
2021/10/25 04:52:24;;;;;;;25.97;23.80;;;4.90;99.90;;;;;;5091218;28;21070;-68
2021/10/25 04:54:51;;;;;;;25.10;23.03;;;4.90;99.90;;;;;;5092261;28;20466;-68
2021/10/25 04:57:17;;;;;;;25.67;23.70;;;4.80;99.90;;;;;;5090430;28;20504;-68
2021/10/25 04:59:45;;;;;;;25.50;23.47;;;4.90;99.90;;;;;;5093214;28;20473;-68
2021/10/25 05:02:14;;;;;;;25.80;23.73;;;4.90;99.90;;;;;;5092191;28;20945;-68
2021/10/25 05:04:41;;;;;;;28.87;23.97;;;4.90;99.90;;;;;;5097647;28;20484;-68
2021/10/25 05:07:09;;;;;;;25.37;23.10;;;4.90;99.90;;;;;;5101305;28;20464;-68
2021/10/25 05:09:35;;;;;;;25.33;22.77;;;4.90;99.90;;;;;;5099242;28;20462;-68
2021/10/25 05:12:02;;;;;;;24.80;22.27;;;4.90;99.90;;;;;;5093020;28;20472;-68
2021/10/25 05:14:29;;;;;;;25.57;23.30;;;4.90;99.90;;;;;;5088159;28;21139;-68
2021/10/25 05:16:56;;;;;;;25.93;23.57;;;4.90;99.90;;;;;;5082649;28;20698;-69
2021/10/25 05:19:25;;;;;;;25.10;23.00;;;4.90;99.90;;;;;;5075024;28;21437;-68
2021/10/25 05:21:52;;;;;;;31.80;24.00;;;4.80;99.90;;;;;;5080153;28;20473;-68
2021/10/25 05:24:19;;;;;;;25.40;23.40;;;4.80;99.90;;;;;;5084212;28;20492;-68
2021/10/25 05:26:46;;;;;;;46.20;24.67;;;4.70;99.90;;;;;;5078392;28;20981;-68
2021/10/25 05:29:13;;;;;;;27.43;24.83;;;4.70;99.90;;;;;;5082983;28;20548;-68
2021/10/25 05:31:40;;;;;;;27.40;25.00;;;4.70;99.90;;;;;;5076770;28;20956;-68
2021/10/25 05:34:09;;;;;;;28.03;24.50;;;4.70;99.90;;;;;;5086757;28;20755;-68
2021/10/25 05:36:37;;;;;;;26.13;23.80;;;4.70;99.90;;;;;;5081318;28;20478;-68
2021/10/25 05:39:08;;;;;;;24.80;23.10;;;4.60;99.90;;;;;;5080862;28;20482;-68
2021/10/25 05:41:36;;;;;;;27.13;23.53;;;4.60;99.90;;;;;;5082182;28;20466;-68
2021/10/25 05:44:03;;;;;;;25.37;23.00;;;4.60;99.90;;;;;;5082370;28;20464;-68
2021/10/25 05:46:30;;;;;;;26.30;23.87;;;4.60;99.90;;;;;;5079838;28;20461;-68
2021/10/25 05:48:59;;;;;;;25.20;23.03;;;4.70;99.90;;;;;;5073873;28;20778;-68
2021/10/25 05:51:26;;;;;;;26.80;24.60;;;4.70;99.90;;;;;;5081505;28;20478;-68
2021/10/25 05:53:57;;;;;;;25.97;23.60;;;4.60;99.90;;;;;;5088907;28;20459;-68
2021/10/25 05:56:25;;;;;;;28.13;25.43;;;4.60;99.90;;;;;;5086318;28;20463;-68
2021/10/25 05:58:52;;;;;;;27.33;24.90;;;4.50;99.90;;;;;;5097604;28;20508;-68
2021/10/25 06:01:22;;;;;;;27.77;25.47;;;4.50;99.90;;;;;;5077485;28;20938;-68
2021/10/25 06:03:57;;;;;;;27.90;25.40;;;4.50;99.90;;;;;;5074732;28;20575;-68
2021/10/25 06:06:25;;;;;;;25.40;23.30;;;4.50;99.90;;;;;;5080988;28;20461;-68
2021/10/25 06:08:52;;;;;;;26.63;24.00;;;4.50;99.90;;;;;;5089116;28;20469;-68
2021/10/25 06:11:20;;;;;;;27.07;24.77;;;4.50;99.90;;;;;;5077415;28;20802;-68
2021/10/25 06:13:47;;;;;;;26.30;24.07;;;4.50;99.90;;;;;;5086663;28;20455;-68
2021/10/25 06:16:15;;;;;;;25.80;23.70;;;4.40;99.90;;;;;;5086489;28;20487;-68
2021/10/25 06:18:43;;;;;;;24.83;23.10;;;4.40;99.90;;;;;;5084665;28;20770;-68
2021/10/25 06:21:11;;;;;;;26.37;23.70;;;4.40;99.90;;;;;;5083601;28;20462;-68
2021/10/25 06:23:38;;;;;;;25.83;23.30;;;4.40;99.90;;;;;;5084791;28;20838;-68
2021/10/25 06:26:06;;;;;;;25.30;23.20;;;4.40;99.90;;;;;;5074582;28;20525;-68
2021/10/25 06:28:36;;;;;;;26.40;23.60;;;4.40;99.90;;;;;;5074541;28;20458;-68
2021/10/25 06:31:07;;;;;;;24.93;22.67;;;4.50;99.90;;;;;;5082204;28;20825;-68
2021/10/25 06:33:42;;;;;;;25.50;23.47;;;4.50;99.90;;;;;;5090135;28;20469;-68
2021/10/25 06:36:10;;;;;;;24.47;22.43;;;4.50;99.90;;;;;;5087592;28;20487;-68
2021/10/25 06:38:43;;;;;;;25.00;22.90;;;4.50;99.90;;;;;;5097534;28;20491;-68
2021/10/25 06:41:10;;;;;;;30.73;26.80;;;4.50;99.90;;;;;;5093359;28;20497;-68
2021/10/25 06:43:40;;;;;;;26.40;23.70;;;4.50;99.90;;;;;;5087283;28;20454;-68
2021/10/25 06:46:07;;;;;;;25.83;23.73;;;4.60;99.90;;;;;;5083631;28;20515;-68
2021/10/25 06:48:34;;;;;;;24.40;22.50;;;4.60;99.90;;;;;;5092483;28;20478;-68
2021/10/25 06:51:01;;;;;;;28.63;22.80;;;4.60;99.90;;;;;;5094627;28;20461;-68
2021/10/25 06:53:29;;;;;;;26.53;24.00;;;4.70;99.90;;;;;;5089593;28;20462;-68
2021/10/25 06:55:56;;;;;;;26.77;24.40;;;4.70;99.90;;;;;;5083612;28;20544;-68
2021/10/25 06:58:23;;;;;;;26.80;23.00;;;4.80;99.90;;;;;;5090529;28;20491;-68
2021/10/25 07:00:52;;;;;;;25.63;23.50;;;4.80;99.90;;;;;;5088028;28;20473;-68
2021/10/25 07:03:19;;;;;;;24.93;23.13;;;4.80;99.90;;;;;;5091431;28;20473;-68
2021/10/25 07:05:46;;;;;;;25.83;23.10;;;4.90;99.90;;;;;;5083656;28;20474;-68
2021/10/25 07:08:15;;;;;;;25.10;22.50;;;4.90;99.90;;;;;;5083989;28;20472;-68
2021/10/25 07:10:42;;;;;;;25.63;23.37;;;5.00;99.90;;;;;;5076937;28;20461;-68
2021/10/25 07:13:09;;;;;;;26.03;23.83;;;5.10;99.90;;;;;;5090123;28;20983;-68
2021/10/25 07:15:44;;;;;;;25.07;22.87;;;5.20;99.90;;;;;;5089429;28;20476;-68
2021/10/25 07:18:15;;;;;;;24.60;22.40;;;5.20;99.90;;;;;;5086300;28;20465;-68
2021/10/25 07:20:59;;;;;;;24.70;22.67;;;5.30;99.90;;;;;;5088644;28;20469;-68
2021/10/25 07:26:52;;;;;;;25.57;23.30;;;5.40;99.90;;;;;;5064257;28;20556;-68
2021/10/25 08:02:40;;;;;;;25.57;23.27;;;6.60;99.90;;;;;;5085957;28;20880;-69
2021/10/25 08:05:32;;;;;;;27.63;24.80;;;6.70;99.90;;;;;;5092066;28;21365;-68
2021/10/25 08:08:09;;;;;;;26.07;23.70;;;6.80;99.90;;;;;;5083532;28;20916;-69
2021/10/25 08:10:40;;;;;;;26.03;23.97;;;7.00;99.90;;;;;;5094204;28;20454;-69
2021/10/25 08:13:12;;;;;;;25.10;23.20;;;7.10;99.90;;;;;;5092224;28;20999;-68
2021/10/25 08:15:42;;;;;;;26.03;24.10;;;7.20;99.90;;;;;;5086386;28;20458;-68
2021/10/25 08:18:22;;;;;;;27.03;24.47;;;7.20;99.90;;;;;;5081442;28;21008;-70
2021/10/25 08:20:50;;;;;;;27.40;24.80;;;7.40;99.90;;;;;;5082991;28;20473;-70
2021/10/25 08:23:18;;;;;;;28.57;25.73;;;7.50;99.90;;;;;;5087330;28;20473;-69
2021/10/25 08:25:45;;;;;;;27.33;24.97;;;7.50;99.90;;;;;;5089524;28;20970;-68
2021/10/25 08:28:14;;;;;;;26.87;24.77;;;7.60;99.90;;;;;;5091541;28;20466;-69
2021/10/25 08:30:41;;;;;;;27.97;25.77;;;7.70;99.90;;;;;;5095285;28;20473;-69
2021/10/25 08:33:22;;;;;;;27.07;24.60;;;7.80;99.90;;;;;;5092357;28;20463;-71
2021/10/25 08:35:53;;;;;;;25.23;23.33;;;7.90;99.90;;;;;;5091005;28;20468;-68
2021/10/25 08:41:07;;;;;;;26.40;24.00;;;8.10;99.90;;;;;;5087873;28;20535;-69
2021/10/25 08:43:36;;;;;;;34.20;24.30;;;8.30;99.90;;;;;;5085811;28;20551;-69
2021/10/25 08:46:06;;;;;;;25.43;23.40;;;8.30;99.90;;;;;;5085124;28;20841;-69
2021/10/25 08:48:34;;;;;;;26.40;23.17;;;8.60;99.90;;;;;;5084605;28;20471;-71
2021/10/25 08:51:02;;;;;;;25.53;23.50;;;8.80;99.90;;;;;;5086461;28;20812;-69
2021/10/25 08:53:30;;;;;;;23.10;21.00;;;9.00;99.90;;;;;;5083007;28;20473;-69
2021/10/25 08:55:58;;;;;;;24.83;22.53;;;9.40;99.90;;;;;;5083237;28;20469;-69
2021/10/25 08:58:26;;;;;;;23.50;21.17;;;9.80;99.90;;;;;;5084386;28;21006;-69
2021/10/25 09:00:55;;;;;;;23.47;21.67;;;10.10;99.90;;;;;;5089278;28;20831;-70
2021/10/25 09:03:22;;;;;;;22.80;20.70;;;10.50;99.90;;;;;;5082751;28;20487;-71
2021/10/25 09:05:55;;;;;;;27.57;21.30;;;10.70;99.90;;;;;;5089524;28;20647;-71
2021/10/25 09:08:26;;;;;;;23.70;21.40;;;10.70;99.90;;;;;;5089922;28;21063;-71
2021/10/25 09:10:55;;;;;;;23.60;21.40;;;10.70;99.90;;;;;;5085783;28;20462;-70
2021/10/25 09:13:25;;;;;;;23.33;21.23;;;11.00;99.90;;;;;;5089416;28;20449;-69
2021/10/25 09:15:53;;;;;;;23.07;20.73;;;11.20;99.90;;;;;;5084245;28;20955;-70
2021/10/25 09:18:22;;;;;;;22.33;20.50;;;11.40;99.90;;;;;;5081922;28;20527;-71
2021/10/25 09:20:51;;;;;;;21.60;20.10;;;11.50;99.90;;;;;;5092112;28;20993;-69
2021/10/25 09:23:23;;;;;;;22.30;20.40;;;11.60;99.90;;;;;;5090998;28;21048;-69
2021/10/25 09:25:55;;;;;;;23.10;20.70;;;11.60;99.90;;;;;;5098515;28;20458;-69
2021/10/25 09:28:26;;;;;;;22.50;20.90;;;11.80;99.90;;;;;;5087339;28;21001;-69
2021/10/25 09:30:56;;;;;;;21.17;19.27;;;12.20;99.90;;;;;;5094907;28;20462;-70
2021/10/25 09:33:24;;;;;;;22.10;20.10;;;12.40;99.90;;;;;;5086897;28;20539;-69
2021/10/25 09:36:01;;;;;;;21.47;19.53;;;12.40;99.90;;;;;;5075291;28;20536;-69
2021/10/25 09:38:34;;;;;;;19.87;18.37;;;12.40;99.90;;;;;;5086639;28;20490;-70
2021/10/25 09:49:37;;;;;;;18.90;17.60;;;12.90;99.90;;;;;;5081789;28;20484;-70
2021/10/25 09:52:06;;;;;;;20.70;18.90;;;13.10;99.90;;;;;;5094141;28;20677;-73
2021/10/25 09:54:34;;;;;;;20.07;17.97;;;13.30;99.90;;;;;;5087494;28;20466;-69
2021/10/25 09:57:07;;;;;;;20.47;18.63;;;13.40;99.90;;;;;;5091170;28;20960;-70
2021/10/25 09:59:46;;;;;;;33.87;18.10;;;13.30;99.90;;;;;;5090789;28;20486;-69
2021/10/25 10:02:14;;;;;;;19.90;18.20;;;13.50;99.90;;;;;;5082786;28;20485;-70
2021/10/25 10:04:42;;;;;;;18.40;17.17;;;13.60;99.90;;;;;;5083612;28;20850;-69
2021/10/25 10:07:12;;;;;;;19.30;17.80;;;13.90;99.90;;;;;;5090813;28;20549;-70
2021/10/25 10:09:40;;;;;;;18.87;17.63;;;14.20;99.90;;;;;;5100099;28;20475;-73
2021/10/25 10:12:09;;;;;;;21.07;19.30;;;14.30;99.90;;;;;;5091548;28;20456;-70
2021/10/25 10:14:36;;;;;;;19.20;17.90;;;14.50;99.90;;;;;;5095027;28;20460;-70
2021/10/25 10:17:05;;;;;;;18.97;17.40;;;14.90;99.90;;;;;;5081101;28;20471;-70
2021/10/25 10:19:34;;;;;;;19.47;17.70;;;15.10;99.90;;;;;;5086257;28;20522;-69
2021/10/25 10:22:04;;;;;;;20.00;18.00;;;15.70;99.90;;;;;;5094165;28;20573;-70
2021/10/25 10:24:34;;;;;;;18.63;17.23;;;16.40;99.90;;;;;;5095286;28;21356;-69
2021/10/25 10:27:07;;;;;;;18.70;17.20;;;16.80;99.90;;;;;;5083053;28;20458;-70
2021/10/25 10:29:42;;;;;;;19.13;17.63;;;16.90;99.90;;;;;;5088638;28;20525;-70
2021/10/25 10:32:16;;;;;;;19.30;17.80;;;16.80;99.90;;;;;;5079383;28;20464;-69
2021/10/25 10:34:44;;;;;;;18.77;17.57;;;17.00;99.90;;;;;;5082173;28;20455;-69
2021/10/25 10:37:21;;;;;;;20.50;18.53;;;16.90;99.90;;;;;;5089907;28;20553;-72
2021/10/25 10:40:05;;;;;;;20.37;18.87;;;16.60;99.90;;;;;;5080555;28;20503;-70
2021/10/25 10:42:34;;;;;;;20.87;18.80;;;16.90;99.90;;;;;;5084106;28;20904;-72
2021/10/25 10:45:08;;;;;;;19.57;18.13;;;16.90;99.90;;;;;;5082598;28;20537;-70
2021/10/25 10:47:41;;;;;;;19.67;18.23;;;17.00;99.90;;;;;;5086007;28;20825;-70
2021/10/25 10:50:21;;;;;;;19.13;17.63;;;16.80;99.90;;;;;;5081517;28;20962;-70
2021/10/25 10:52:59;;;;;;;22.27;18.40;;;16.50;99.90;;;;;;5084196;28;20791;-69
2021/10/25 10:55:27;;;;;;;19.87;17.70;;;16.40;99.90;;;;;;5091283;28;20909;-72
2021/10/25 11:00:35;;;;;;;18.50;17.10;;;16.30;99.90;;;;;;5080268;28;21003;-73
2021/10/25 11:03:12;;;;;;;19.70;18.30;;;16.40;99.90;;;;;;5082053;28;20462;-69
2021/10/25 11:05:42;;;;;;;19.93;18.10;;;16.70;99.90;;;;;;5086608;28;20852;-70
2021/10/25 11:08:11;;;;;;;18.97;17.60;;;16.70;99.90;;;;;;5078912;28;20465;-69
2021/10/25 11:10:41;;;;;;;20.20;18.50;;;16.80;99.90;;;;;;5088457;28;20907;-70
2021/10/25 11:13:13;;;;;;;18.97;17.67;;;16.90;99.90;;;;;;5079163;28;20466;-73
2021/10/25 11:15:57;;;;;;;19.70;17.97;;;16.90;99.90;;;;;;5083131;28;20462;-71
2021/10/25 11:18:29;;;;;;;17.60;16.37;;;17.20;99.90;;;;;;5080397;28;20458;-72
2021/10/25 11:21:19;;;;;;;19.27;17.03;;;17.50;99.90;;;;;;5086496;28;20775;-71
2021/10/25 11:23:51;;;;;;;18.53;16.93;;;17.80;99.90;;;;;;5086211;28;20484;-69
2021/10/25 11:26:22;;;;;;;18.23;16.80;;;18.10;99.90;;;;;;5071833;28;20979;-69
2021/10/25 11:28:59;;;;;;;22.00;18.57;;;18.10;99.90;;;;;;5079775;28;20473;-71
2021/10/25 11:31:29;;;;;;;19.23;17.50;;;17.80;99.90;;;;;;5087219;28;20489;-71
2021/10/25 11:33:58;;;;;;;18.60;17.17;;;18.00;99.90;;;;;;5087089;28;20464;-73
2021/10/25 11:36:28;;;;;;;17.30;16.00;;;18.40;99.90;;;;;;5088815;28;20533;-70
2021/10/25 11:38:56;;;;;;;17.57;16.47;;;18.50;99.90;;;;;;5091803;28;20960;-70
2021/10/25 11:41:23;;;;;;;17.60;16.60;;;18.80;99.90;;;;;;5085056;28;20527;-73
2021/10/25 11:43:51;;;;;;;17.60;16.60;;;18.60;99.90;;;;;;5089875;28;20861;-71
2021/10/25 11:46:20;;;;;;;17.57;16.67;;;19.00;99.90;;;;;;5085626;28;20829;-71
2021/10/25 11:48:59;;;;;;;17.40;16.50;;;18.90;99.90;;;;;;5089857;28;20461;-70
2021/10/25 11:51:27;;;;;;;17.70;16.50;;;18.70;99.90;;;;;;5087780;28;21082;-71
2021/10/25 11:53:58;;;;;;;17.60;16.50;;;18.70;99.90;;;;;;5090367;28;20468;-74
2021/10/25 11:56:26;;;;;;;17.67;16.77;;;18.70;99.90;;;;;;5087626;28;20463;-71
2021/10/25 11:58:55;;;;;;;17.53;16.53;;;18.60;99.90;;;;;;5081529;28;20555;-71
2021/10/25 12:01:22;;;;;;;18.03;16.90;;;18.70;99.90;;;;;;5091322;28;20453;-71
2021/10/25 12:03:49;;;;;;;17.70;16.70;;;18.50;99.90;;;;;;5090443;28;20858;-72
2021/10/25 12:06:21;;;;;;;17.90;16.80;;;18.40;99.90;;;;;;5091000;28;20962;-71
2021/10/25 12:09:00;;;;;;;17.07;16.00;;;18.50;99.90;;;;;;5083457;28;20470;-70
2021/10/25 12:14:29;;;;;;;17.30;16.20;;;18.40;99.90;;;;;;5037824;28;20464;-69
2021/10/25 12:16:56;;;;;;;16.80;16.00;;;18.40;99.90;;;;;;5080816;28;20459;-70
2021/10/25 12:19:24;;;;;;;17.97;16.97;;;18.40;99.90;;;;;;5077958;28;20604;-69
2021/10/25 12:21:53;;;;;;;16.97;16.07;;;18.40;99.90;;;;;;5079503;28;21586;-68
2021/10/25 12:24:22;;;;;;;17.30;16.40;;;18.40;99.90;;;;;;5086656;28;20486;-68
2021/10/25 12:26:59;;;;;;;17.67;16.40;;;18.50;99.90;;;;;;5082098;28;21713;-71
2021/10/25 12:29:26;;;;;;;17.00;16.00;;;18.60;99.90;;;;;;5084617;28;20539;-72
2021/10/25 12:31:55;;;;;;;17.67;16.67;;;18.50;99.90;;;;;;5085994;28;20466;-69
2021/10/25 12:34:23;;;;;;;17.90;16.70;;;18.20;99.90;;;;;;5082732;28;20458;-68
2021/10/25 12:36:50;;;;;;;17.70;16.70;;;18.00;99.90;;;;;;5089813;28;20461;-70
2021/10/25 12:39:20;;;;;;;17.57;16.40;;;17.80;99.90;;;;;;5082412;28;20450;-69
2021/10/25 12:41:50;;;;;;;18.07;17.00;;;17.50;99.90;;;;;;5079053;28;20550;-69
2021/10/25 12:44:26;;;;;;;17.83;16.63;;;17.20;99.90;;;;;;5084746;28;20466;-69
2021/10/25 12:47:03;;;;;;;17.47;16.57;;;17.10;99.90;;;;;;5090386;28;21003;-69
2021/10/25 12:49:30;;;;;;;17.67;16.63;;;16.90;99.90;;;;;;5087992;28;20465;-69
2021/10/25 12:52:04;;;;;;;18.17;16.90;;;16.50;99.90;;;;;;5084411;28;20470;-71
2021/10/25 12:54:35;;;;;;;18.33;17.23;;;16.40;99.90;;;;;;5075133;28;20519;-72
2021/10/25 12:57:05;;;;;;;18.50;17.27;;;16.40;99.90;;;;;;5088226;28;20469;-68
2021/10/25 12:59:33;;;;;;;18.60;17.50;;;16.40;99.90;;;;;;5095548;28;20460;-69
2021/10/25 13:02:01;;;;;;;17.33;16.43;;;16.50;99.90;;;;;;5077571;28;21449;-75
2021/10/25 13:04:30;;;;;;;17.37;16.37;;;16.50;99.90;;;;;;5073145;28;20470;-71
2021/10/25 13:07:08;;;;;;;18.60;17.33;;;16.60;99.90;;;;;;5083206;28;20969;-73
2021/10/25 13:09:47;;;;;;;19.50;17.63;;;16.70;99.90;;;;;;5075213;28;20446;-73
2021/10/25 13:12:14;;;;;;;16.93;16.03;;;16.60;99.90;;;;;;5092405;28;20466;-71
2021/10/25 13:14:41;;;;;;;17.60;16.43;;;16.60;99.90;;;;;;5095215;28;20826;-70
2021/10/25 13:17:09;;;;;;;16.60;15.80;;;16.70;99.90;;;;;;5089772;28;20664;-70
2021/10/25 13:19:36;;;;;;;17.30;16.30;;;16.70;99.90;;;;;;5083133;28;20511;-68
2021/10/25 13:22:04;;;;;;;17.27;16.27;;;16.50;99.90;;;;;;5088766;28;20465;-68
2021/10/25 13:24:32;;;;;;;17.37;16.37;;;16.40;99.90;;;;;;5094121;28;20476;-68
2021/10/25 13:27:01;;;;;;;18.03;16.93;;;16.50;99.90;;;;;;5088960;28;20458;-69
2021/10/25 13:29:28;;;;;;;17.60;16.33;;;16.50;99.90;;;;;;5095571;28;20468;-68
2021/10/25 13:31:55;;;;;;;17.90;16.40;;;16.60;99.90;;;;;;5094035;28;20526;-71
2021/10/25 13:34:22;;;;;;;17.30;16.20;;;16.70;99.90;;;;;;5087277;28;20748;-68
2021/10/25 13:36:50;;;;;;;17.40;16.50;;;16.80;99.90;;;;;;5088790;28;20460;-68
2021/10/25 13:39:18;;;;;;;18.77;16.93;;;16.90;99.90;;;;;;5090556;28;21069;-68
2021/10/25 13:41:46;;;;;;;16.97;15.87;;;16.90;99.90;;;;;;5086537;28;20458;-68
2021/10/25 13:44:14;;;;;;;17.10;15.73;;;16.90;99.90;;;;;;5091128;28;20458;-68
2021/10/25 13:46:41;;;;;;;16.40;15.60;;;16.90;99.90;;;;;;5095813;28;20465;-68
2021/10/25 13:49:08;;;;;;;16.47;15.60;;;16.80;99.90;;;;;;5091692;28;20465;-68
2021/10/25 13:51:36;;;;;;;17.07;15.97;;;16.70;99.90;;;;;;5094941;28;20517;-71
2021/10/25 13:54:04;;;;;;;17.17;16.00;;;16.60;99.90;;;;;;5094123;28;20464;-68
2021/10/25 13:56:33;;;;;;;17.13;15.70;;;16.60;99.90;;;;;;5096425;28;20498;-68
2021/10/25 13:59:00;;;;;;;17.90;16.47;;;16.50;99.90;;;;;;5090672;28;20470;-69
2021/10/25 14:01:28;;;;;;;17.17;16.27;;;16.40;99.90;;;;;;5090306;28;20838;-70